createdAt,value
2023-02-04T00:06:12.004Z,20.50
2023-02-04T00:12:35.791Z,17.58
2023-02-04T00:18:59.526Z,17.88
2023-02-04T00:25:24.067Z,16.42
2023-02-04T00:31:46.513Z,16.00
2023-02-04T00:38:09.301Z,18.20
2023-02-04T00:44:33.710Z,19.67
2023-02-04T00:50:56.032Z,21.70
2023-02-04T00:57:20.231Z,22.90
2023-02-04T01:03:44.712Z,21.60
2023-02-04T01:10:08.519Z,22.85
2023-02-04T01:16:33.114Z,21.50
2023-02-04T01:22:57.886Z,20.60
2023-02-04T01:29:23.891Z,24.42
2023-02-04T01:35:48.605Z,24.17
2023-02-04T01:42:13.262Z,19.10
2023-02-04T01:48:36.668Z,18.55
2023-02-04T01:55:00.046Z,17.35
2023-02-04T02:01:36.245Z,15.10
2023-02-04T02:08:03.522Z,14.23
2023-02-04T02:14:27.208Z,13.75
2023-02-04T02:20:53.345Z,13.52
2023-02-04T02:27:18.565Z,14.30
2023-02-04T02:33:44.370Z,13.15
2023-02-04T02:40:08.357Z,14.02
2023-02-04T02:46:34.925Z,12.98
2023-02-04T02:52:58.707Z,13.02
2023-02-04T02:59:24.373Z,12.68
2023-02-04T03:05:52.339Z,13.43
2023-02-04T03:12:15.219Z,16.67
2023-02-04T03:18:39.165Z,15.73
2023-02-04T03:25:04.706Z,10.57
2023-02-04T03:31:27.341Z,6.90
2023-02-04T03:37:50.794Z,4.95
2023-02-04T03:44:15.882Z,3.65
2023-02-04T03:50:39.214Z,3.38
2023-02-04T03:57:03.687Z,3.90
2023-02-04T04:03:27.941Z,4.38
2023-02-04T04:09:50.156Z,4.10
2023-02-04T04:16:14.324Z,5.57
2023-02-04T04:22:38.386Z,8.40
2023-02-04T04:29:01.801Z,7.47
2023-02-04T04:35:25.286Z,8.90
2023-02-04T04:41:50.637Z,7.60
2023-02-04T04:48:14.127Z,8.07
2023-02-04T04:54:36.963Z,8.40
2023-02-04T05:01:02.773Z,8.57
2023-02-04T05:07:25.890Z,10.30
2023-02-04T05:13:49.439Z,12.30
2023-02-04T05:20:13.419Z,7.50
2023-02-04T05:26:36.403Z,7.15
2023-02-04T05:32:59.423Z,7.57
2023-02-04T05:39:25.014Z,8.35
2023-02-04T05:45:48.394Z,8.80
2023-02-04T05:52:11.724Z,7.90
2023-02-04T05:58:37.402Z,9.10
2023-02-04T06:05:02.969Z,7.68
2023-02-04T06:11:26.454Z,5.88
2023-02-04T06:17:50.887Z,5.68
2023-02-04T06:24:13.697Z,6.38
2023-02-04T06:30:37.527Z,6.38
2023-02-04T06:37:03.049Z,6.88
2023-02-04T06:43:27.718Z,7.35
2023-02-04T06:49:51.434Z,7.07
2023-02-04T06:56:16.454Z,5.95
2023-02-04T07:02:39.833Z,6.00
2023-02-04T07:09:02.729Z,7.05
2023-02-04T07:15:27.066Z,5.65
2023-02-04T07:21:53.987Z,7.65
2023-02-04T07:28:16.564Z,6.70
2023-02-04T07:34:41.115Z,7.38
2023-02-04T07:41:05.634Z,7.95
2023-02-04T07:47:29.977Z,7.80
2023-02-04T07:53:54.473Z,12.10
2023-02-04T08:00:18.470Z,7.32
2023-02-04T08:06:40.785Z,9.43
2023-02-04T08:13:04.695Z,11.30
2023-02-04T08:19:27.891Z,9.80
2023-02-04T08:25:53.482Z,13.85
2023-02-04T08:32:18.318Z,10.13
2023-02-04T08:38:41.653Z,10.52
2023-02-04T08:45:05.472Z,6.90
2023-02-04T08:51:29.901Z,8.48
2023-02-04T08:57:54.720Z,7.90
2023-02-04T09:04:17.820Z,7.47
2023-02-04T09:10:41.526Z,7.63
2023-02-04T09:17:05.887Z,5.82
2023-02-04T09:23:30.220Z,5.47
2023-02-04T09:29:55.166Z,7.65
2023-02-04T09:36:21.090Z,7.55
2023-02-04T09:42:44.826Z,7.07
2023-02-04T09:49:13.096Z,6.97
2023-02-04T09:55:37.307Z,6.10
2023-02-04T10:02:02.701Z,5.68
2023-02-04T10:08:29.189Z,5.03
2023-02-04T10:14:53.470Z,7.40
2023-02-04T10:21:18.266Z,6.53
2023-02-04T10:27:50.998Z,7.18
2023-02-04T10:34:22.544Z,7.57
2023-02-04T10:40:47.260Z,7.65
2023-02-04T10:47:17.441Z,7.32
2023-02-04T10:54:02.314Z,8.02
2023-02-04T11:00:26.742Z,9.68
2023-02-04T11:06:52.073Z,9.60
2023-02-04T11:13:24.595Z,7.47
2023-02-04T11:19:53.291Z,9.05
2023-02-04T11:26:34.446Z,7.47
2023-02-04T11:33:02.508Z,8.37
2023-02-04T11:39:29.659Z,13.13
2023-02-04T11:46:02.300Z,8.73
2023-02-04T11:52:29.795Z,8.88
2023-02-04T11:58:56.676Z,6.05
2023-02-04T12:05:24.024Z,9.75
2023-02-04T12:11:53.268Z,7.53
2023-02-04T12:18:17.901Z,6.43
2023-02-04T12:24:44.032Z,6.55
2023-02-04T12:31:08.532Z,6.47
2023-02-04T12:37:34.388Z,4.97
2023-02-04T12:43:58.851Z,7.05
2023-02-04T12:50:23.511Z,7.45
2023-02-04T12:56:49.446Z,7.47
2023-02-04T13:03:15.046Z,8.15
2023-02-04T13:09:38.396Z,9.40
2023-02-04T13:16:01.461Z,5.30
2023-02-04T13:22:26.026Z,5.68
2023-02-04T13:28:50.622Z,6.53
2023-02-04T13:35:13.522Z,6.50
2023-02-04T13:41:38.466Z,6.82
2023-02-04T13:48:01.939Z,7.95
2023-02-04T13:54:24.784Z,7.40
2023-02-04T14:00:48.949Z,7.72
2023-02-04T14:07:14.858Z,8.13
2023-02-04T14:13:38.785Z,6.43
2023-02-04T14:20:05.530Z,6.22
2023-02-04T14:26:28.540Z,6.75
2023-02-04T14:32:52.740Z,6.63
2023-02-04T14:39:18.361Z,6.97
2023-02-04T14:45:46.278Z,7.70
2023-02-04T14:52:10.465Z,7.18
2023-02-04T14:58:34.706Z,7.88
2023-02-04T15:04:59.011Z,6.90
2023-02-04T15:11:22.181Z,5.80
2023-02-04T15:17:46.616Z,6.88
2023-02-04T15:24:11.037Z,9.48
2023-02-04T15:30:35.164Z,8.95
2023-02-04T15:37:02.222Z,10.30
2023-02-04T15:43:25.641Z,9.23
2023-02-04T15:49:48.676Z,8.63
2023-02-04T15:56:13.158Z,11.10
2023-02-04T16:02:37.121Z,10.60
2023-02-04T16:09:00.559Z,7.68
2023-02-04T16:15:25.453Z,8.32
2023-02-04T16:21:48.560Z,8.15
2023-02-04T16:28:11.499Z,8.45
2023-02-04T16:34:37.332Z,7.88
2023-02-04T16:41:00.415Z,5.80
2023-02-04T16:47:23.679Z,7.32
2023-02-04T16:53:48.030Z,6.78
2023-02-04T17:00:11.434Z,7.53
2023-02-04T17:06:35.871Z,7.15
2023-02-04T17:13:01.888Z,7.10
2023-02-04T17:19:25.368Z,7.53
2023-02-04T17:25:51.380Z,6.30
2023-02-04T17:32:15.559Z,7.35
2023-02-04T17:38:38.757Z,7.05
2023-02-04T17:45:01.872Z,9.45
2023-02-04T17:51:28.152Z,9.60
2023-02-04T17:57:51.867Z,10.95
2023-02-04T18:04:18.415Z,11.95
2023-02-04T18:10:43.946Z,9.63
2023-02-04T18:17:17.112Z,11.50
2023-02-04T18:23:40.315Z,9.95
2023-02-04T18:30:19.985Z,10.50
2023-02-04T18:36:44.158Z,10.30
2023-02-04T18:43:19.352Z,13.27
2023-02-04T18:49:59.917Z,10.93
2023-02-04T18:56:23.863Z,11.98
2023-02-04T19:02:49.059Z,12.88
2023-02-04T19:09:37.380Z,12.18
2023-02-04T19:16:05.073Z,9.30
2023-02-04T19:22:38.080Z,9.18
2023-02-04T19:29:22.996Z,7.00
2023-02-04T19:35:46.713Z,7.60
2023-02-04T19:42:28.010Z,8.82
2023-02-04T19:48:52.595Z,9.63
2023-02-04T19:55:27.566Z,9.07
2023-02-04T20:02:03.791Z,7.95
2023-02-04T20:08:45.087Z,9.48
2023-02-04T20:15:26.228Z,9.23
2023-02-04T20:21:58.194Z,9.55
2023-02-04T20:28:47.652Z,7.85
2023-02-04T20:35:37.298Z,7.40
2023-02-04T20:42:18.489Z,7.70
2023-02-04T20:48:44.599Z,7.22
2023-02-04T20:55:21.778Z,8.85
2023-02-04T21:01:46.799Z,15.25
2023-02-04T21:08:25.533Z,11.13
2023-02-04T21:14:48.560Z,8.73
2023-02-04T21:21:11.696Z,8.70
2023-02-04T21:27:35.172Z,8.05
2023-02-04T21:33:58.493Z,11.70
2023-02-04T21:40:23.641Z,11.27
2023-02-04T21:46:49.229Z,12.43
2023-02-04T21:53:13.571Z,12.73
2023-02-04T21:59:36.348Z,14.73
2023-02-04T22:06:00.182Z,14.88
2023-02-04T22:12:22.575Z,14.05
2023-02-04T22:18:45.095Z,13.80
2023-02-04T22:25:09.024Z,12.70
2023-02-04T22:31:31.592Z,13.75
2023-02-04T22:37:54.030Z,11.15
2023-02-04T22:44:17.418Z,9.05
2023-02-04T22:50:39.270Z,9.20
2023-02-04T22:57:01.452Z,10.23
2023-02-04T23:03:24.531Z,9.45
2023-02-04T23:09:46.836Z,8.85
2023-02-04T23:16:10.701Z,13.77
2023-02-04T23:22:34.927Z,25.55
2023-02-04T23:29:00.837Z,11.45
2023-02-04T23:35:27.497Z,10.05
2023-02-04T23:41:52.205Z,11.75
2023-02-04T23:48:14.780Z,9.90
2023-02-04T23:54:39.966Z,12.68
